• Join FlightAware (Why Join?)
  • Login
  • US Flag 
Rudolph Flight #1: Arrived! 
11:27PM EST


 

Airport Tracker/Info


-or-


 

Live Flight TrackerFlight Track Log ✈ AWI3680 ✈ 05-Jul-2013 ✈ KPHL - KALB

Flight Track Log - Related Links

Times and Time Zones

All times are in EDT time to prevent confusion due to time zone crossing. See the AWI3680 flight status page for this flight to view local times or setup timezone preferences in your user account.

Time Position Orientation Groundspeed Altitude Reporting Facility
EDT Latitude Longitude Course Direction KTS MPH feet Rate Location/Type
06:41PM 39.8667 -75.2667 105° East 159 183 900  Level Philadelphia TRACON
06:42PM 39.8000 -75.3333 218° Southwest 207 238 4,800 2,460 Climbing Philadelphia TRACON
06:43PM 39.8264 -74.9696 123° Southeast  Level FlightAware Approximate
06:43PM 39.7333 -75.3500 191° South 251 289 7,300  Level Philadelphia TRACON
06:44PM 39.8167 -74.8809 90° East  Level FlightAware Approximate
06:45PM 39.8016 -74.7910 105° East  Level FlightAware Approximate
06:45PM 39.7292 -75.2275 92° East 286 329 10,400  Level New York Center
06:46PM 39.7836 -74.7016 105° East  Level FlightAware Approximate
06:46PM 39.7417 -75.1147 82° East 307 353 11,900  Level New York Center
06:47PM 39.7592 -74.9808 80° East 335 386 12,000  Climbing New York Center
06:48PM 39.7736 -74.8656 81° East 357 411 12,000 600 Level New York Center
06:49PM 39.8036 -74.7186 75° East 369 425 13,300 1,320 Climbing New York Center
06:50PM 39.8858 -74.6286 40° Northeast 364 419 14,800 1,320 Climbing New York Center
06:51PM 39.9719 -74.5439 37° Northeast 364 419 16,100 1,200 Climbing New York Center
06:52PM 40.0517 -74.4614 38° Northeast 391 450 17,200 960 Climbing New York Center
06:53PM 40.1442 -74.3714 37° Northeast 409 471 18,100 840 Climbing New York Center
06:54PM 40.2386 -74.2786 37° Northeast 414 476 18,900 900 Climbing New York Center
06:55PM 40.3517 -74.1889 31° Northeast 420 483 19,900 840 Climbing New York Center
06:56PM 40.4581 -74.1125 29° Northeast 430 495 20,700 780 Climbing New York Center
06:57PM 40.5644 -74.0328 30° Northeast 435 501 21,500 720 Climbing New York Center
06:58PM 40.6708 -73.9503 30° Northeast 435 501 22,200 600 Climbing New York Center
07:00PM 40.8881 -73.7497 35° Northeast 449 517 23,500 540 Climbing Boston Center
07:01PM 40.9706 -73.6386 45° Northeast 454 522 24,000 -60 Climbing Boston Center
07:02PM 41.0822 -73.5361 35° Northeast 459 528 23,400 -840 Descending Boston Center
07:03PM 41.2011 -73.5269 North 421 484 22,400 -1,080 Descending Boston Center
07:04PM 41.3178 -73.5264 360° North 413 475 21,300 -1,140 Descending Boston Center
07:05PM 41.4322 -73.5253 360° North 413 475 20,200 -1,380 Descending Boston Center
07:06PM 41.5447 -73.5275 359° North 403 464 18,600 -1,620 Descending Boston Center
07:07PM 41.6450 -73.5264 360° North 398 458 17,000 -1,800 Descending Boston Center
07:08PM 41.7617 -73.5283 359° North 392 451 15,100 -1,800 Descending Boston Center
07:09PM 41.8575 -73.5272 360° North 380 437 13,400 -1,860 Descending Boston Center
07:10PM 41.9492 -73.5286 359° North 370 426 11,800 -1,560 Descending Boston Center
07:11PM 42.0283 -73.5272 North 367 422 11,000 -480 Descending Boston Center
07:12PM 42.1242 -73.5261 360° North 353 406 11,000  Level Boston Center
07:13PM 42.2219 -73.5475 351° North 323 372 11,000 -900 Level Boston Center
07:14PM 42.3011 -73.5658 350° North 289 333 9,300 -1,800 Descending Boston Center
07:15PM 42.3800 -73.5783 353° North 277 319 7,400 -1,980 Descending Boston Center
07:16PM 42.4550 -73.5967 350° North 276 318 5,300 -1,740 Descending Boston Center
07:17PM 42.5278 -73.6150 349° North 271 312 4,000 -660 Descending Boston Center
07:18PM 42.6006 -73.6333 349° North 260 299 4,000  Level Boston Center
07:19PM 42.6817 -73.6517 351° North 253 291 4,000  Level Boston Center
07:20PM 42.7544 -73.6644 353° North 253 291 4,000 -660 Level Boston Center
07:21PM 42.8292 -73.6744 354° North 254 292 2,700 -840 Descending Boston Center
07:22PM 42.8853 -73.6925 347° North 203 234 2,400 -300 Descending Boston Center